Terminal Aerodrome Forecast
Issued by NWS Portland, ME

Current Version | Previous Version | Text Only | Print | Product List | Glossary On
Versions: 1 2 3 4 5 6 7 8 9 10 11 12 13 14 15 16 17 18 19 20 21 22 23 24
000
FTUS41 KGYX 231900 AAA
TAFCON
TAF AMD
KCON 231958Z 2320/2418 33019G30KT P6SM OVC040
     FM240100 31015G21KT P6SM BKN050
     FM241300 31022G35KT P6SM SCT050=

USA.gov is the U.S. government's official web portal to all federal, state and local government web resources and services.